TimeEDT,TemperatureF,Dew PointF,Humidity,Sea Level PressureIn,VisibilityMPH,Wind Direction,Wind SpeedMPH,Gust SpeedMPH,PrecipitationIn,Events,Conditions,WindDirDegrees,DateUTC
12:40 AM,73.4,71.6,94,29.61,6.0,SE,10.4,17.3,0.01,Rain,Light Rain,140,2013-06-28 04:40:00
12:53 AM,73.0,71.1,93,29.61,8.0,SSE,11.5,-,0.01,,Overcast,150,2013-06-28 04:53:00
1:09 AM,73.4,71.6,94,29.60,7.0,SSE,12.7,-,N/A,,Overcast,160,2013-06-28 05:09:00
1:34 AM,73.4,69.8,88,29.59,7.0,South,11.5,-,N/A,,Mostly Cloudy,170,2013-06-28 05:34:00
1:53 AM,73.0,70.0,90,29.58,8.0,South,12.7,-,N/A,,Mostly Cloudy,180,2013-06-28 05:53:00
2:34 AM,73.4,69.8,88,29.58,7.0,South,10.4,-,N/A,,Mostly Cloudy,170,2013-06-28 06:34:00
2:45 AM,73.4,69.8,88,29.58,7.0,South,10.4,-,N/A,,Overcast,170,2013-06-28 06:45:00
2:53 AM,73.0,70.0,90,29.58,7.0,South,10.4,-,N/A,,Overcast,170,2013-06-28 06:53:00
3:53 AM,72.0,69.1,91,29.55,7.0,SSE,9.2,-,N/A,,Scattered Clouds,160,2013-06-28 07:53:00
4:53 AM,73.0,70.0,90,29.54,7.0,South,10.4,-,N/A,,Overcast,180,2013-06-28 08:53:00
5:53 AM,72.0,69.1,91,29.54,7.0,South,9.2,-,N/A,,Mostly Cloudy,180,2013-06-28 09:53:00
6:53 AM,73.0,69.1,87,29.55,7.0,South,9.2,-,N/A,,Overcast,190,2013-06-28 10:53:00
7:53 AM,73.0,69.1,87,29.55,9.0,SSW,6.9,-,N/A,,Overcast,200,2013-06-28 11:53:00
8:53 AM,75.9,71.1,85,29.54,10.0,South,6.9,-,N/A,,Scattered Clouds,180,2013-06-28 12:53:00
9:53 AM,78.1,70.0,76,29.52,10.0,SSW,8.1,-,N/A,,Mostly Cloudy,210,2013-06-28 13:53:00
10:53 AM,79.0,70.0,74,29.52,10.0,South,9.2,-,N/A,,Scattered Clouds,180,2013-06-28 14:53:00
11:53 AM,82.0,70.0,67,29.52,10.0,SSE,11.5,-,N/A,,Mostly Cloudy,160,2013-06-28 15:53:00
12:53 PM,82.9,71.1,67,29.52,10.0,South,9.2,-,N/A,,Mostly Cloudy,180,2013-06-28 16:53:00
1:30 PM,78.8,69.8,74,29.53,7.0,SSW,9.2,-,0.00,Rain,Rain,210,2013-06-28 17:30:00
1:53 PM,77.0,70.0,79,29.52,10.0,SSW,4.6,-,0.01,Rain,Light Rain,210,2013-06-28 17:53:00
2:25 PM,80.6,69.8,70,29.52,10.0,SW,5.8,-,0.00,,Mostly Cloudy,220,2013-06-28 18:25:00
2:53 PM,81.0,70.0,69,29.51,10.0,SSW,6.9,-,0.00,,Scattered Clouds,200,2013-06-28 18:53:00
3:53 PM,82.0,69.1,65,29.50,10.0,South,12.7,-,N/A,,Clear,190,2013-06-28 19:53:00
4:53 PM,81.0,70.0,69,29.50,10.0,South,13.8,18.4,N/A,,Scattered Clouds,190,2013-06-28 20:53:00
5:53 PM,78.1,70.0,76,29.50,10.0,South,9.2,-,N/A,,Scattered Clouds,180,2013-06-28 21:53:00
6:53 PM,77.0,70.0,79,29.50,10.0,South,11.5,-,N/A,,Mostly Cloudy,190,2013-06-28 22:53:00
7:53 PM,75.9,68.0,76,29.50,10.0,Variable,4.6,-,N/A,,Mostly Cloudy,0,2013-06-28 23:53:00
8:53 PM,75.0,69.1,82,29.53,10.0,Calm,Calm,-,N/A,,Overcast,0,2013-06-29 00:53:00
9:53 PM,75.9,70.0,82,29.53,9.0,Calm,Calm,-,N/A,,Mostly Cloudy,0,2013-06-29 01:53:00
10:53 PM,73.9,70.0,87,29.54,7.0,Calm,Calm,-,N/A,,Overcast,0,2013-06-29 02:53:00
11:53 PM,73.0,69.1,87,29.52,6.0,Calm,Calm,-,N/A,,Partly Cloudy,0,2013-06-29 03:53:00